sensor_id;sensor_type;location;lat;lon;timestamp;temperature;humidity
49731;DHT22;35622;52.008;5.426;2023-03-01T00:01:26;2.00;58.00
49731;DHT22;35622;52.008;5.426;2023-03-01T00:03:53;2.00;58.00
49731;DHT22;35622;52.008;5.426;2023-03-01T00:06:20;2.10;57.80
49731;DHT22;35622;52.008;5.426;2023-03-01T00:08:46;2.00;57.70
49731;DHT22;35622;52.008;5.426;2023-03-01T00:11:18;1.90;57.70
49731;DHT22;35622;52.008;5.426;2023-03-01T00:13:45;1.90;58.00
49731;DHT22;35622;52.008;5.426;2023-03-01T00:16:17;1.90;58.00
49731;DHT22;35622;52.008;5.426;2023-03-01T00:18:43;1.70;58.00
49731;DHT22;35622;52.008;5.426;2023-03-01T00:21:09;1.70;58.50
49731;DHT22;35622;52.008;5.426;2023-03-01T00:23:35;1.70;58.80
49731;DHT22;35622;52.008;5.426;2023-03-01T00:26:01;1.80;58.90
49731;DHT22;35622;52.008;5.426;2023-03-01T00:28:27;1.80;58.80
49731;DHT22;35622;52.008;5.426;2023-03-01T00:30:53;1.80;58.30
49731;DHT22;35622;52.008;5.426;2023-03-01T00:33:18;1.60;58.30
49731;DHT22;35622;52.008;5.426;2023-03-01T00:35:44;1.60;58.60
49731;DHT22;35622;52.008;5.426;2023-03-01T00:38:10;1.70;58.70
49731;DHT22;35622;52.008;5.426;2023-03-01T00:40:36;1.80;58.30
49731;DHT22;35622;52.008;5.426;2023-03-01T00:43:03;1.80;57.90
49731;DHT22;35622;52.008;5.426;2023-03-01T00:45:28;1.70;58.50
49731;DHT22;35622;52.008;5.426;2023-03-01T00:47:56;1.60;58.70
49731;DHT22;35622;52.008;5.426;2023-03-01T00:50:21;1.50;59.00
49731;DHT22;35622;52.008;5.426;2023-03-01T00:52:51;1.50;59.20
49731;DHT22;35622;52.008;5.426;2023-03-01T00:55:17;1.50;59.40
49731;DHT22;35622;52.008;5.426;2023-03-01T00:57:42;1.50;59.50
49731;DHT22;35622;52.008;5.426;2023-03-01T01:00:08;1.40;59.30
49731;DHT22;35622;52.008;5.426;2023-03-01T01:02:35;1.50;59.40
49731;DHT22;35622;52.008;5.426;2023-03-01T01:05:00;1.60;59.20
49731;DHT22;35622;52.008;5.426;2023-03-01T01:07:26;1.50;58.90
49731;DHT22;35622;52.008;5.426;2023-03-01T01:09:52;1.50;59.20
49731;DHT22;35622;52.008;5.426;2023-03-01T01:12:17;1.50;59.00
49731;DHT22;35622;52.008;5.426;2023-03-01T01:14:43;1.50;58.70
49731;DHT22;35622;52.008;5.426;2023-03-01T01:17:08;1.50;59.10
49731;DHT22;35622;52.008;5.426;2023-03-01T01:19:34;1.40;59.20
49731;DHT22;35622;52.008;5.426;2023-03-01T01:21:59;1.30;59.20
49731;DHT22;35622;52.008;5.426;2023-03-01T01:24:25;1.30;59.50
49731;DHT22;35622;52.008;5.426;2023-03-01T01:26:51;1.30;59.80
49731;DHT22;35622;52.008;5.426;2023-03-01T01:29:17;1.20;60.00
49731;DHT22;35622;52.008;5.426;2023-03-01T01:31:43;1.30;60.10
49731;DHT22;35622;52.008;5.426;2023-03-01T01:34:16;1.30;60.00
49731;DHT22;35622;52.008;5.426;2023-03-01T01:36:43;1.20;60.00
49731;DHT22;35622;52.008;5.426;2023-03-01T01:39:09;1.10;60.30
49731;DHT22;35622;52.008;5.426;2023-03-01T01:41:40;1.10;60.60
49731;DHT22;35622;52.008;5.426;2023-03-01T01:44:22;1.20;60.50
49731;DHT22;35622;52.008;5.426;2023-03-01T01:47:01;1.20;60.40
49731;DHT22;35622;52.008;5.426;2023-03-01T01:49:44;1.20;60.50
49731;DHT22;35622;52.008;5.426;2023-03-01T01:52:29;1.10;60.80
49731;DHT22;35622;52.008;5.426;2023-03-01T01:55:11;1.10;61.00
49731;DHT22;35622;52.008;5.426;2023-03-01T01:57:48;1.20;61.10
49731;DHT22;35622;52.008;5.426;2023-03-01T02:00:24;1.20;61.10
49731;DHT22;35622;52.008;5.426;2023-03-01T02:02:54;1.20;60.80
49731;DHT22;35622;52.008;5.426;2023-03-01T02:05:26;1.10;60.20
49731;DHT22;35622;52.008;5.426;2023-03-01T02:07:54;1.10;60.40
49731;DHT22;35622;52.008;5.426;2023-03-01T02:10:22;1.10;60.70
49731;DHT22;35622;52.008;5.426;2023-03-01T02:12:49;1.10;60.60
49731;DHT22;35622;52.008;5.426;2023-03-01T02:15:14;1.10;60.70
49731;DHT22;35622;52.008;5.426;2023-03-01T02:17:40;1.10;60.80
49731;DHT22;35622;52.008;5.426;2023-03-01T02:20:24;1.10;60.50
49731;DHT22;35622;52.008;5.426;2023-03-01T02:22:52;1.00;60.50
49731;DHT22;35622;52.008;5.426;2023-03-01T02:26:07;1.00;60.70
49731;DHT22;35622;52.008;5.426;2023-03-01T02:30:41;1.10;61.20
49731;DHT22;35622;52.008;5.426;2023-03-01T02:33:28;1.10;60.80
49731;DHT22;35622;52.008;5.426;2023-03-01T02:36:01;1.10;60.80
49731;DHT22;35622;52.008;5.426;2023-03-01T02:38:28;1.00;60.90
49731;DHT22;35622;52.008;5.426;2023-03-01T02:40:54;1.00;60.70
49731;DHT22;35622;52.008;5.426;2023-03-01T02:43:23;1.00;60.90
49731;DHT22;35622;52.008;5.426;2023-03-01T02:45:52;1.00;61.00
49731;DHT22;35622;52.008;5.426;2023-03-01T02:48:18;0.90;61.00
49731;DHT22;35622;52.008;5.426;2023-03-01T02:51:19;1.00;61.00
49731;DHT22;35622;52.008;5.426;2023-03-01T02:53:59;0.90;61.00
49731;DHT22;35622;52.008;5.426;2023-03-01T02:56:29;1.00;61.40
49731;DHT22;35622;52.008;5.426;2023-03-01T02:58:55;1.00;60.70
49731;DHT22;35622;52.008;5.426;2023-03-01T03:01:26;1.00;60.20
49731;DHT22;35622;52.008;5.426;2023-03-01T03:04:07;0.90;60.30
49731;DHT22;35622;52.008;5.426;2023-03-01T03:06:33;1.00;60.70
49731;DHT22;35622;52.008;5.426;2023-03-01T03:08:59;0.80;60.50
49731;DHT22;35622;52.008;5.426;2023-03-01T03:11:25;0.80;60.90
49731;DHT22;35622;52.008;5.426;2023-03-01T03:13:51;0.90;60.70
49731;DHT22;35622;52.008;5.426;2023-03-01T03:16:17;0.80;60.40
49731;DHT22;35622;52.008;5.426;2023-03-01T03:18:43;0.70;60.80
49731;DHT22;35622;52.008;5.426;2023-03-01T03:21:10;0.70;61.30
49731;DHT22;35622;52.008;5.426;2023-03-01T03:23:36;0.70;61.30
49731;DHT22;35622;52.008;5.426;2023-03-01T03:26:03;0.80;61.30
49731;DHT22;35622;52.008;5.426;2023-03-01T03:28:33;0.80;60.70
49731;DHT22;35622;52.008;5.426;2023-03-01T03:30:59;0.70;60.50
49731;DHT22;35622;52.008;5.426;2023-03-01T03:33:31;0.70;60.80
49731;DHT22;35622;52.008;5.426;2023-03-01T03:35:57;0.60;60.90
49731;DHT22;35622;52.008;5.426;2023-03-01T03:38:23;0.60;61.50
49731;DHT22;35622;52.008;5.426;2023-03-01T03:40:51;0.50;61.80
49731;DHT22;35622;52.008;5.426;2023-03-01T03:43:19;0.70;61.80
49731;DHT22;35622;52.008;5.426;2023-03-01T03:45:46;0.70;61.30
49731;DHT22;35622;52.008;5.426;2023-03-01T03:48:12;0.70;61.10
49731;DHT22;35622;52.008;5.426;2023-03-01T03:50:41;0.70;60.60
49731;DHT22;35622;52.008;5.426;2023-03-01T03:53:09;0.70;60.10
49731;DHT22;35622;52.008;5.426;2023-03-01T03:55:36;0.50;60.20
49731;DHT22;35622;52.008;5.426;2023-03-01T03:58:05;0.60;60.70
49731;DHT22;35622;52.008;5.426;2023-03-01T04:00:44;0.60;60.20
49731;DHT22;35622;52.008;5.426;2023-03-01T04:03:11;0.40;60.20
49731;DHT22;35622;52.008;5.426;2023-03-01T04:05:38;0.40;61.10
49731;DHT22;35622;52.008;5.426;2023-03-01T04:08:04;0.40;61.10
49731;DHT22;35622;52.008;5.426;2023-03-01T04:10:39;0.40;61.10
49731;DHT22;35622;52.008;5.426;2023-03-01T04:13:06;0.50;60.80
49731;DHT22;35622;52.008;5.426;2023-03-01T04:15:33;0.40;60.70
49731;DHT22;35622;52.008;5.426;2023-03-01T04:17:59;0.30;61.10
49731;DHT22;35622;52.008;5.426;2023-03-01T04:20:30;0.40;61.70
49731;DHT22;35622;52.008;5.426;2023-03-01T04:23:04;0.40;61.50
49731;DHT22;35622;52.008;5.426;2023-03-01T04:25:38;0.40;61.60
49731;DHT22;35622;52.008;5.426;2023-03-01T04:28:04;0.40;61.60
49731;DHT22;35622;52.008;5.426;2023-03-01T04:30:29;0.40;61.10
49731;DHT22;35622;52.008;5.426;2023-03-01T04:33:04;0.30;61.00
49731;DHT22;35622;52.008;5.426;2023-03-01T04:35:31;0.20;61.80
49731;DHT22;35622;52.008;5.426;2023-03-01T04:37:56;0.30;61.90
49731;DHT22;35622;52.008;5.426;2023-03-01T04:40:22;0.40;62.00
49731;DHT22;35622;52.008;5.426;2023-03-01T04:42:47;0.30;61.50
49731;DHT22;35622;52.008;5.426;2023-03-01T04:45:13;0.40;61.10
49731;DHT22;35622;52.008;5.426;2023-03-01T04:47:40;0.30;60.90
49731;DHT22;35622;52.008;5.426;2023-03-01T04:50:06;0.10;61.40
49731;DHT22;35622;52.008;5.426;2023-03-01T04:52:32;0.20;62.10
49731;DHT22;35622;52.008;5.426;2023-03-01T04:54:58;0.20;62.20
49731;DHT22;35622;52.008;5.426;2023-03-01T04:57:23;0.30;62.10
49731;DHT22;35622;52.008;5.426;2023-03-01T04:59:49;0.20;61.80
49731;DHT22;35622;52.008;5.426;2023-03-01T05:02:14;0.10;62.00
49731;DHT22;35622;52.008;5.426;2023-03-01T05:04:40;0.10;62.20
49731;DHT22;35622;52.008;5.426;2023-03-01T05:07:05;0.10;62.50
49731;DHT22;35622;52.008;5.426;2023-03-01T05:09:31;0.20;62.20
49731;DHT22;35622;52.008;5.426;2023-03-01T05:11:56;0.20;61.80
49731;DHT22;35622;52.008;5.426;2023-03-01T05:14:22;0.30;61.60
49731;DHT22;35622;52.008;5.426;2023-03-01T05:16:48;0.30;61.50
49731;DHT22;35622;52.008;5.426;2023-03-01T05:19:13;0.30;61.70
49731;DHT22;35622;52.008;5.426;2023-03-01T05:21:41;0.30;61.70
49731;DHT22;35622;52.008;5.426;2023-03-01T05:24:26;0.20;61.60
49731;DHT22;35622;52.008;5.426;2023-03-01T05:26:52;0.20;61.20
49731;DHT22;35622;52.008;5.426;2023-03-01T05:29:19;0.20;61.10
49731;DHT22;35622;52.008;5.426;2023-03-01T05:31:59;0.20;61.10
49731;DHT22;35622;52.008;5.426;2023-03-01T05:34:28;0.20;60.90
49731;DHT22;35622;52.008;5.426;2023-03-01T05:36:54;0.10;60.40
49731;DHT22;35622;52.008;5.426;2023-03-01T05:39:24;0.00;60.80
49731;DHT22;35622;52.008;5.426;2023-03-01T05:41:59;0.00;61.10
49731;DHT22;35622;52.008;5.426;2023-03-01T05:44:25;0.00;61.70
49731;DHT22;35622;52.008;5.426;2023-03-01T05:46:51;0.00;62.00
49731;DHT22;35622;52.008;5.426;2023-03-01T05:49:17;0.00;62.10
49731;DHT22;35622;52.008;5.426;2023-03-01T05:51:47;0.00;62.30
49731;DHT22;35622;52.008;5.426;2023-03-01T05:54:13;0.00;62.30
49731;DHT22;35622;52.008;5.426;2023-03-01T05:56:39;0.00;62.30
49731;DHT22;35622;52.008;5.426;2023-03-01T05:59:05;0.00;62.40
49731;DHT22;35622;52.008;5.426;2023-03-01T06:01:32;0.10;62.50
49731;DHT22;35622;52.008;5.426;2023-03-01T06:03:57;0.00;62.30
49731;DHT22;35622;52.008;5.426;2023-03-01T06:06:23;0.10;62.20
49731;DHT22;35622;52.008;5.426;2023-03-01T06:08:49;0.00;62.10
49731;DHT22;35622;52.008;5.426;2023-03-01T06:11:15;0.00;61.90
49731;DHT22;35622;52.008;5.426;2023-03-01T06:13:42;0.00;61.80
49731;DHT22;35622;52.008;5.426;2023-03-01T06:16:27;0.10;61.80
49731;DHT22;35622;52.008;5.426;2023-03-01T06:18:53;0.10;61.70
49731;DHT22;35622;52.008;5.426;2023-03-01T06:21:18;0.10;61.60
49731;DHT22;35622;52.008;5.426;2023-03-01T06:23:44;0.10;61.60
49731;DHT22;35622;52.008;5.426;2023-03-01T06:26:10;0.20;61.60
49731;DHT22;35622;52.008;5.426;2023-03-01T06:28:37;0.20;61.50
49731;DHT22;35622;52.008;5.426;2023-03-01T06:31:02;0.20;61.40
49731;DHT22;35622;52.008;5.426;2023-03-01T06:33:28;0.30;61.10
49731;DHT22;35622;52.008;5.426;2023-03-01T06:35:56;0.30;60.50
49731;DHT22;35622;52.008;5.426;2023-03-01T06:38:23;0.20;60.60
49731;DHT22;35622;52.008;5.426;2023-03-01T06:40:53;0.20;60.70
49731;DHT22;35622;52.008;5.426;2023-03-01T06:43:19;0.30;60.70
49731;DHT22;35622;52.008;5.426;2023-03-01T06:45:45;0.20;60.60
49731;DHT22;35622;52.008;5.426;2023-03-01T06:48:11;0.20;60.70
49731;DHT22;35622;52.008;5.426;2023-03-01T06:50:37;0.20;60.90
49731;DHT22;35622;52.008;5.426;2023-03-01T06:53:03;0.30;61.10
49731;DHT22;35622;52.008;5.426;2023-03-01T06:55:29;0.40;60.90
49731;DHT22;35622;52.008;5.426;2023-03-01T06:57:59;0.40;60.60
49731;DHT22;35622;52.008;5.426;2023-03-01T07:00:25;0.50;60.40
49731;DHT22;35622;52.008;5.426;2023-03-01T07:02:51;0.50;60.00
49731;DHT22;35622;52.008;5.426;2023-03-01T07:05:17;0.30;60.00
49731;DHT22;35622;52.008;5.426;2023-03-01T07:07:43;0.30;60.30
49731;DHT22;35622;52.008;5.426;2023-03-01T07:10:09;0.50;60.40
49731;DHT22;35622;52.008;5.426;2023-03-01T07:12:35;0.50;60.20
49731;DHT22;35622;52.008;5.426;2023-03-01T07:15:00;0.40;60.10
49731;DHT22;35622;52.008;5.426;2023-03-01T07:17:26;0.40;60.50
49731;DHT22;35622;52.008;5.426;2023-03-01T07:19:52;0.50;61.00
49731;DHT22;35622;52.008;5.426;2023-03-01T07:22:17;0.70;61.30
49731;DHT22;35622;52.008;5.426;2023-03-01T07:24:43;0.90;61.40
49731;DHT22;35622;52.008;5.426;2023-03-01T07:33:53;1.50;59.50
49731;DHT22;35622;52.008;5.426;2023-03-01T07:36:18;1.60;59.70
49731;DHT22;35622;52.008;5.426;2023-03-01T07:42:12;2.60;60.40
49731;DHT22;35622;52.008;5.426;2023-03-01T07:44:40;3.40;59.10
49731;DHT22;35622;52.008;5.426;2023-03-01T07:47:07;4.20;58.30
49731;DHT22;35622;52.008;5.426;2023-03-01T07:49:32;4.90;56.90
49731;DHT22;35622;52.008;5.426;2023-03-01T07:51:59;5.80;55.10
49731;DHT22;35622;52.008;5.426;2023-03-01T07:54:25;6.70;53.40
49731;DHT22;35622;52.008;5.426;2023-03-01T07:56:53;7.60;51.30
49731;DHT22;35622;52.008;5.426;2023-03-01T07:59:20;8.30;49.10
49731;DHT22;35622;52.008;5.426;2023-03-01T08:01:46;9.00;46.80
49731;DHT22;35622;52.008;5.426;2023-03-01T08:04:12;10.10;45.00
49731;DHT22;35622;52.008;5.426;2023-03-01T08:06:38;11.30;42.70
49731;DHT22;35622;52.008;5.426;2023-03-01T08:09:04;12.20;39.90
49731;DHT22;35622;52.008;5.426;2023-03-01T08:11:29;12.60;38.40
49731;DHT22;35622;52.008;5.426;2023-03-01T08:13:55;12.80;38.20
49731;DHT22;35622;52.008;5.426;2023-03-01T08:16:23;13.00;37.80
49731;DHT22;35622;52.008;5.426;2023-03-01T08:18:48;13.20;37.20
49731;DHT22;35622;52.008;5.426;2023-03-01T08:21:16;13.40;36.90
49731;DHT22;35622;52.008;5.426;2023-03-01T08:23:42;13.60;36.30
49731;DHT22;35622;52.008;5.426;2023-03-01T08:26:14;14.10;36.20
49731;DHT22;35622;52.008;5.426;2023-03-01T08:28:40;14.70;34.90
49731;DHT22;35622;52.008;5.426;2023-03-01T08:31:17;15.30;33.80
49731;DHT22;35622;52.008;5.426;2023-03-01T08:33:43;15.70;33.70
49731;DHT22;35622;52.008;5.426;2023-03-01T08:36:08;16.30;32.40
49731;DHT22;35622;52.008;5.426;2023-03-01T08:38:35;16.70;31.40
49731;DHT22;35622;52.008;5.426;2023-03-01T08:41:02;17.40;31.10
49731;DHT22;35622;52.008;5.426;2023-03-01T08:43:28;17.90;29.70
49731;DHT22;35622;52.008;5.426;2023-03-01T08:45:54;17.80;29.10
49731;DHT22;35622;52.008;5.426;2023-03-01T08:48:19;17.90;29.20
49731;DHT22;35622;52.008;5.426;2023-03-01T08:50:45;18.30;28.90
49731;DHT22;35622;52.008;5.426;2023-03-01T08:53:10;18.70;27.90
49731;DHT22;35622;52.008;5.426;2023-03-01T08:55:36;19.10;27.00
49731;DHT22;35622;52.008;5.426;2023-03-01T08:58:02;19.10;26.50
49731;DHT22;35622;52.008;5.426;2023-03-01T09:00:27;20.00;27.40
49731;DHT22;35622;52.008;5.426;2023-03-01T09:06:15;21.80;23.60
49731;DHT22;35622;52.008;5.426;2023-03-01T09:08:44;23.40;21.70
49731;DHT22;35622;52.008;5.426;2023-03-01T09:11:12;24.20;22.00
49731;DHT22;35622;52.008;5.426;2023-03-01T09:13:38;24.80;20.40
49731;DHT22;35622;52.008;5.426;2023-03-01T09:16:05;25.60;19.70
49731;DHT22;35622;52.008;5.426;2023-03-01T09:18:32;26.40;19.70
49731;DHT22;35622;52.008;5.426;2023-03-01T09:21:09;27.00;19.40
49731;DHT22;35622;52.008;5.426;2023-03-01T09:23:40;27.80;18.70
49731;DHT22;35622;52.008;5.426;2023-03-01T09:26:11;28.50;18.80
49731;DHT22;35622;52.008;5.426;2023-03-01T09:28:37;28.80;16.30
49731;DHT22;35622;52.008;5.426;2023-03-01T09:31:03;28.80;17.80
49731;DHT22;35622;52.008;5.426;2023-03-01T09:33:30;29.10;17.30
49731;DHT22;35622;52.008;5.426;2023-03-01T09:36:02;29.70;16.70
49731;DHT22;35622;52.008;5.426;2023-03-01T09:38:28;29.40;15.90
49731;DHT22;35622;52.008;5.426;2023-03-01T09:40:54;29.40;15.20
49731;DHT22;35622;52.008;5.426;2023-03-01T09:46:09;28.50;15.70
49731;DHT22;35622;52.008;5.426;2023-03-01T09:48:44;27.70;15.00
49731;DHT22;35622;52.008;5.426;2023-03-01T09:51:32;27.40;15.90
49731;DHT22;35622;52.008;5.426;2023-03-01T09:54:04;26.10;16.30
49731;DHT22;35622;52.008;5.426;2023-03-01T09:56:34;25.50;18.10
49731;DHT22;35622;52.008;5.426;2023-03-01T10:04:51;22.60;19.40
49731;DHT22;35622;52.008;5.426;2023-03-01T10:07:21;21.60;20.90
49731;DHT22;35622;52.008;5.426;2023-03-01T10:09:50;22.00;21.30
49731;DHT22;35622;52.008;5.426;2023-03-01T10:12:39;22.70;20.60
49731;DHT22;35622;52.008;5.426;2023-03-01T10:15:15;23.10;19.30
49731;DHT22;35622;52.008;5.426;2023-03-01T10:17:45;23.10;18.70
49731;DHT22;35622;52.008;5.426;2023-03-01T10:20:24;23.10;18.60
49731;DHT22;35622;52.008;5.426;2023-03-01T10:22:51;22.80;19.10
49731;DHT22;35622;52.008;5.426;2023-03-01T10:30:48;23.40;19.20
49731;DHT22;35622;52.008;5.426;2023-03-01T10:33:32;22.70;19.10
49731;DHT22;35622;52.008;5.426;2023-03-01T10:35:59;22.70;19.20
49731;DHT22;35622;52.008;5.426;2023-03-01T10:38:25;22.70;19.40
49731;DHT22;35622;52.008;5.426;2023-03-01T10:40:54;22.10;18.50
49731;DHT22;35622;52.008;5.426;2023-03-01T10:43:21;21.80;19.60
49731;DHT22;35622;52.008;5.426;2023-03-01T10:45:47;21.80;18.90
49731;DHT22;35622;52.008;5.426;2023-03-01T10:48:17;21.50;19.30
49731;DHT22;35622;52.008;5.426;2023-03-01T10:51:04;21.10;19.60
49731;DHT22;35622;52.008;5.426;2023-03-01T10:53:42;20.20;20.30
49731;DHT22;35622;52.008;5.426;2023-03-01T10:56:13;18.90;21.40
49731;DHT22;35622;52.008;5.426;2023-03-01T11:04:10;18.50;22.70
49731;DHT22;35622;52.008;5.426;2023-03-01T11:06:38;18.30;22.60
49731;DHT22;35622;52.008;5.426;2023-03-01T11:09:22;18.10;23.00
49731;DHT22;35622;52.008;5.426;2023-03-01T11:11:53;18.20;23.30
49731;DHT22;35622;52.008;5.426;2023-03-01T11:14:22;17.70;23.10
49731;DHT22;35622;52.008;5.426;2023-03-01T11:17:00;17.20;24.00
49731;DHT22;35622;52.008;5.426;2023-03-01T11:19:26;17.00;24.10
49731;DHT22;35622;52.008;5.426;2023-03-01T11:22:12;16.40;25.10
49731;DHT22;35622;52.008;5.426;2023-03-01T11:27:06;17.20;24.00
49731;DHT22;35622;52.008;5.426;2023-03-01T11:29:43;17.90;23.30
49731;DHT22;35622;52.008;5.426;2023-03-01T11:32:13;18.10;23.00
49731;DHT22;35622;52.008;5.426;2023-03-01T11:34:51;19.20;22.10
49731;DHT22;35622;52.008;5.426;2023-03-01T11:37:43;20.60;20.60
49731;DHT22;35622;52.008;5.426;2023-03-01T11:40:33;21.10;19.20
49731;DHT22;35622;52.008;5.426;2023-03-01T11:43:18;22.10;18.90
49731;DHT22;35622;52.008;5.426;2023-03-01T11:51:09;21.80;18.00
49731;DHT22;35622;52.008;5.426;2023-03-01T11:56:35;22.20;18.10
49731;DHT22;35622;52.008;5.426;2023-03-01T12:13:47;27.80;15.20
49731;DHT22;35622;52.008;5.426;2023-03-01T12:19:55;27.90;13.70
49731;DHT22;35622;52.008;5.426;2023-03-01T12:22:30;26.90;14.50
49731;DHT22;35622;52.008;5.426;2023-03-01T12:31:00;23.90;15.80
49731;DHT22;35622;52.008;5.426;2023-03-01T12:33:58;24.20;15.60
49731;DHT22;35622;52.008;5.426;2023-03-01T12:39:28;24.50;16.40
49731;DHT22;35622;52.008;5.426;2023-03-01T12:42:12;24.40;15.10
49731;DHT22;35622;52.008;5.426;2023-03-01T12:50:41;21.50;17.50
49731;DHT22;35622;52.008;5.426;2023-03-01T12:53:17;20.20;19.30
49731;DHT22;35622;52.008;5.426;2023-03-01T12:55:45;18.00;20.00
49731;DHT22;35622;52.008;5.426;2023-03-01T12:58:24;16.90;21.80
49731;DHT22;35622;52.008;5.426;2023-03-01T13:01:02;16.30;22.10
49731;DHT22;35622;52.008;5.426;2023-03-01T13:04:08;15.30;24.10
49731;DHT22;35622;52.008;5.426;2023-03-01T13:09:38;15.20;25.70
49731;DHT22;35622;52.008;5.426;2023-03-01T13:12:44;15.40;25.40
49731;DHT22;35622;52.008;5.426;2023-03-01T13:17:58;14.50;25.40
49731;DHT22;35622;52.008;5.426;2023-03-01T13:23:13;13.60;26.40
49731;DHT22;35622;52.008;5.426;2023-03-01T13:26:07;12.90;27.40
49731;DHT22;35622;52.008;5.426;2023-03-01T13:28:57;12.90;28.90
49731;DHT22;35622;52.008;5.426;2023-03-01T13:33:54;15.10;27.00
49731;DHT22;35622;52.008;5.426;2023-03-01T13:39:02;16.70;23.90
49731;DHT22;35622;52.008;5.426;2023-03-01T13:44:35;17.60;21.80
49731;DHT22;35622;52.008;5.426;2023-03-01T13:52:42;16.50;23.00
49731;DHT22;35622;52.008;5.426;2023-03-01T13:57:42;14.10;24.80
49731;DHT22;35622;52.008;5.426;2023-03-01T14:00:33;13.40;26.00
49731;DHT22;35622;52.008;5.426;2023-03-01T14:05:29;12.70;27.50
49731;DHT22;35622;52.008;5.426;2023-03-01T14:07:55;12.70;28.10
49731;DHT22;35622;52.008;5.426;2023-03-01T14:10:21;12.30;28.00
49731;DHT22;35622;52.008;5.426;2023-03-01T14:13:00;12.30;28.80
49731;DHT22;35622;52.008;5.426;2023-03-01T14:15:37;12.10;29.40
49731;DHT22;35622;52.008;5.426;2023-03-01T14:18:18;11.50;29.00
49731;DHT22;35622;52.008;5.426;2023-03-01T14:20:45;11.70;30.00
49731;DHT22;35622;52.008;5.426;2023-03-01T14:23:19;11.60;30.40
49731;DHT22;35622;52.008;5.426;2023-03-01T14:25:51;11.20;30.00
49731;DHT22;35622;52.008;5.426;2023-03-01T14:28:28;10.80;30.20
49731;DHT22;35622;52.008;5.426;2023-03-01T14:30:57;11.30;29.50
49731;DHT22;35622;52.008;5.426;2023-03-01T14:33:26;10.70;29.90
49731;DHT22;35622;52.008;5.426;2023-03-01T14:36:12;11.10;30.40
49731;DHT22;35622;52.008;5.426;2023-03-01T14:38:47;11.30;30.10
49731;DHT22;35622;52.008;5.426;2023-03-01T14:41:21;11.10;30.00
49731;DHT22;35622;52.008;5.426;2023-03-01T14:43:55;11.00;30.00
49731;DHT22;35622;52.008;5.426;2023-03-01T14:46:37;10.80;30.10
49731;DHT22;35622;52.008;5.426;2023-03-01T14:49:09;11.10;30.50
49731;DHT22;35622;52.008;5.426;2023-03-01T14:51:38;10.80;31.10
49731;DHT22;35622;52.008;5.426;2023-03-01T14:54:16;11.10;30.80
49731;DHT22;35622;52.008;5.426;2023-03-01T14:56:46;11.40;30.70
49731;DHT22;35622;52.008;5.426;2023-03-01T14:59:11;11.30;30.10
49731;DHT22;35622;52.008;5.426;2023-03-01T15:01:38;10.80;30.70
49731;DHT22;35622;52.008;5.426;2023-03-01T15:04:05;11.00;30.80
49731;DHT22;35622;52.008;5.426;2023-03-01T15:06:31;11.10;30.90
49731;DHT22;35622;52.008;5.426;2023-03-01T15:08:57;11.20;30.50
49731;DHT22;35622;52.008;5.426;2023-03-01T15:11:28;11.30;31.00
49731;DHT22;35622;52.008;5.426;2023-03-01T15:13:54;11.20;30.80
49731;DHT22;35622;52.008;5.426;2023-03-01T15:16:25;11.00;31.10
49731;DHT22;35622;52.008;5.426;2023-03-01T15:18:57;11.10;30.40
49731;DHT22;35622;52.008;5.426;2023-03-01T15:21:31;11.00;30.90
49731;DHT22;35622;52.008;5.426;2023-03-01T15:26:49;10.50;32.20
49731;DHT22;35622;52.008;5.426;2023-03-01T15:29:22;10.60;31.90
49731;DHT22;35622;52.008;5.426;2023-03-01T15:32:28;10.80;31.80
49731;DHT22;35622;52.008;5.426;2023-03-01T15:34:54;10.80;31.60
49731;DHT22;35622;52.008;5.426;2023-03-01T15:37:40;10.50;32.30
49731;DHT22;35622;52.008;5.426;2023-03-01T15:42:44;10.60;32.10
49731;DHT22;35622;52.008;5.426;2023-03-01T15:47:47;10.90;31.10
49731;DHT22;35622;52.008;5.426;2023-03-01T15:50:26;10.50;31.40
49731;DHT22;35622;52.008;5.426;2023-03-01T15:52:53;10.60;31.60
49731;DHT22;35622;52.008;5.426;2023-03-01T15:55:24;10.60;31.80
49731;DHT22;35622;52.008;5.426;2023-03-01T15:58:03;10.80;32.00
49731;DHT22;35622;52.008;5.426;2023-03-01T16:00:29;10.80;32.20
49731;DHT22;35622;52.008;5.426;2023-03-01T16:02:55;10.80;32.00
49731;DHT22;35622;52.008;5.426;2023-03-01T16:05:30;10.80;31.60
49731;DHT22;35622;52.008;5.426;2023-03-01T16:07:56;10.80;32.00
49731;DHT22;35622;52.008;5.426;2023-03-01T16:10:22;10.60;32.00
49731;DHT22;35622;52.008;5.426;2023-03-01T16:12:48;10.70;31.80
49731;DHT22;35622;52.008;5.426;2023-03-01T16:15:30;10.70;32.40
49731;DHT22;35622;52.008;5.426;2023-03-01T16:17:56;10.40;32.30
49731;DHT22;35622;52.008;5.426;2023-03-01T16:20:24;10.50;32.90
49731;DHT22;35622;52.008;5.426;2023-03-01T16:22:51;10.30;32.90
49731;DHT22;35622;52.008;5.426;2023-03-01T16:25:18;10.40;33.10
49731;DHT22;35622;52.008;5.426;2023-03-01T16:27:51;10.50;33.60
49731;DHT22;35622;52.008;5.426;2023-03-01T16:30:19;10.50;34.00
49731;DHT22;35622;52.008;5.426;2023-03-01T16:32:47;10.50;34.70
49731;DHT22;35622;52.008;5.426;2023-03-01T16:35:14;10.30;35.60
49731;DHT22;35622;52.008;5.426;2023-03-01T16:37:40;10.40;36.00
49731;DHT22;35622;52.008;5.426;2023-03-01T16:40:19;10.30;35.90
49731;DHT22;35622;52.008;5.426;2023-03-01T16:42:49;10.10;36.30
49731;DHT22;35622;52.008;5.426;2023-03-01T16:45:15;10.00;36.60
49731;DHT22;35622;52.008;5.426;2023-03-01T16:47:41;10.00;37.00
49731;DHT22;35622;52.008;5.426;2023-03-01T16:50:07;10.10;36.90
49731;DHT22;35622;52.008;5.426;2023-03-01T16:52:33;10.10;37.00
49731;DHT22;35622;52.008;5.426;2023-03-01T16:54:59;9.90;37.30
49731;DHT22;35622;52.008;5.426;2023-03-01T16:57:24;10.00;37.40
49731;DHT22;35622;52.008;5.426;2023-03-01T16:59:52;9.90;37.50
49731;DHT22;35622;52.008;5.426;2023-03-01T17:02:18;9.80;37.90
49731;DHT22;35622;52.008;5.426;2023-03-01T17:04:45;9.70;38.40
49731;DHT22;35622;52.008;5.426;2023-03-01T17:07:16;9.60;38.70
49731;DHT22;35622;52.008;5.426;2023-03-01T17:09:42;9.50;38.70
49731;DHT22;35622;52.008;5.426;2023-03-01T17:12:07;9.40;39.20
49731;DHT22;35622;52.008;5.426;2023-03-01T17:14:33;9.30;39.50
49731;DHT22;35622;52.008;5.426;2023-03-01T17:16:58;9.20;39.60
49731;DHT22;35622;52.008;5.426;2023-03-01T17:19:24;9.00;39.70
49731;DHT22;35622;52.008;5.426;2023-03-01T17:21:49;9.00;40.70
49731;DHT22;35622;52.008;5.426;2023-03-01T17:24:15;9.10;40.30
49731;DHT22;35622;52.008;5.426;2023-03-01T17:26:41;8.80;40.00
49731;DHT22;35622;52.008;5.426;2023-03-01T17:29:06;8.80;40.30
49731;DHT22;35622;52.008;5.426;2023-03-01T17:31:33;8.80;40.40
49731;DHT22;35622;52.008;5.426;2023-03-01T17:33:59;8.70;40.70
49731;DHT22;35622;52.008;5.426;2023-03-01T17:36:24;8.70;41.00
49731;DHT22;35622;52.008;5.426;2023-03-01T17:39:15;8.50;41.10
49731;DHT22;35622;52.008;5.426;2023-03-01T17:41:41;8.40;41.30
49731;DHT22;35622;52.008;5.426;2023-03-01T17:44:07;8.40;41.80
49731;DHT22;35622;52.008;5.426;2023-03-01T17:46:32;8.30;42.10
49731;DHT22;35622;52.008;5.426;2023-03-01T17:48:58;8.10;42.50
49731;DHT22;35622;52.008;5.426;2023-03-01T17:51:23;8.00;42.60